Time;durP1;ratioP1;P1;durP2;ratioP2;P2;SDS_P1;SDS_P2;PMS_P1;PMS_P2;Temp;Humidity;BMP_temperature;BMP_pressure;BME280_temperature;BME280_humidity;BME280_pressure;Samples;Min_cycle;Max_cycle;Signal;HPM_P1;HPM_P2
2022/01/01 00:02:07;;;;;;;;;;;23.00;36.70;;;;;;5119102;28;20018;-60
2022/01/01 00:04:33;;;;;;;;;;;22.70;37.40;;;;;;5119607;28;20365;-60
2022/01/01 00:06:59;;;;;;;;;;;23.00;36.90;;;;;;5124857;28;19935;-59
2022/01/01 00:09:25;;;;;;;;;;;22.80;37.10;;;;;;5119371;28;19937;-60
2022/01/01 00:11:50;;;;;;;;;;;22.80;37.40;;;;;;5119290;28;20263;-53
2022/01/01 00:14:16;;;;;;;;;;;22.90;37.10;;;;;;5124844;28;19924;-63
2022/01/01 00:16:42;;;;;;;;;;;22.90;37.20;;;;;;5118986;28;19971;-59
2022/01/01 00:19:11;;;;;;;;;;;23.00;37.00;;;;;;5124248;28;19924;-60
2022/01/01 00:21:37;;;;;;;;;;;23.10;36.80;;;;;;5120077;27;19932;-54
2022/01/01 00:24:03;;;;;;;;;;;22.80;37.30;;;;;;5122932;28;19924;-61
2022/01/01 00:26:28;;;;;;;;;;;22.90;37.20;;;;;;5128049;28;20016;-59
2022/01/01 00:28:54;;;;;;;;;;;23.00;37.10;;;;;;5122619;28;19936;-61
2022/01/01 00:31:20;;;;;;;;;;;23.10;37.00;;;;;;5122857;28;20087;-59
2022/01/01 00:33:46;;;;;;;;;;;23.00;37.10;;;;;;5092149;28;20299;-59
2022/01/01 00:36:11;;;;;;;;;;;23.10;37.00;;;;;;5122226;28;19927;-61
2022/01/01 00:38:37;;;;;;;;;;;22.90;37.50;;;;;;5127489;28;19923;-56
2022/01/01 00:41:03;;;;;;;;;;;22.90;37.40;;;;;;5122887;28;19924;-61
2022/01/01 00:43:29;;;;;;;;;;;23.00;37.20;;;;;;5122127;28;21147;-60
2022/01/01 00:45:55;;;;;;;;;;;23.10;36.90;;;;;;5127854;28;19923;-53
2022/01/01 00:48:20;;;;;;;;;;;23.10;36.90;;;;;;5104563;28;19931;-56
2022/01/01 00:50:46;;;;;;;;;;;22.90;37.30;;;;;;5122798;28;19985;-56
2022/01/01 00:53:12;;;;;;;;;;;22.90;37.30;;;;;;5127476;28;19928;-60
2022/01/01 00:55:38;;;;;;;;;;;23.00;37.10;;;;;;5122388;28;20390;-53
2022/01/01 00:58:03;;;;;;;;;;;23.00;37.10;;;;;;5125822;28;19937;-59
2022/01/01 01:00:29;;;;;;;;;;;22.90;37.50;;;;;;5124357;28;19930;-53
2022/01/01 01:02:55;;;;;;;;;;;23.00;37.40;;;;;;5122208;28;19936;-62
2022/01/01 01:05:21;;;;;;;;;;;22.80;37.90;;;;;;5127520;28;20010;-60
2022/01/01 01:07:47;;;;;;;;;;;23.00;37.50;;;;;;5122179;28;19935;-62
2022/01/01 01:10:13;;;;;;;;;;;22.50;38.30;;;;;;5121909;28;19984;-63
2022/01/01 01:12:44;;;;;;;;;;;22.80;38.00;;;;;;5127283;28;19943;-59
2022/01/01 01:15:16;;;;;;;;;;;23.00;37.50;;;;;;5121960;28;19934;-61
2022/01/01 01:17:48;;;;;;;;;;;22.90;37.90;;;;;;5121970;28;19933;-55
2022/01/01 01:20:14;;;;;;;;;;;23.00;37.60;;;;;;5127194;28;19972;-61
2022/01/01 01:22:40;;;;;;;;;;;22.60;38.20;;;;;;5121732;28;20014;-61
2022/01/01 01:25:06;;;;;;;;;;;22.80;37.90;;;;;;5127033;28;20370;-61
2022/01/01 01:27:35;;;;;;;;;;;22.90;37.50;;;;;;5122584;28;19923;-62
2022/01/01 01:30:00;;;;;;;;;;;22.70;37.90;;;;;;5121112;28;19936;-60
2022/01/01 01:32:26;;;;;;;;;;;22.80;37.60;;;;;;5126234;27;20392;-52
2022/01/01 01:34:52;;;;;;;;;;;23.00;37.40;;;;;;5120520;28;19924;-61
2022/01/01 01:37:18;;;;;;;;;;;22.90;37.50;;;;;;5122134;28;19949;-59
2022/01/01 01:39:44;;;;;;;;;;;23.00;37.40;;;;;;5126910;28;19946;-62
2022/01/01 01:42:09;;;;;;;;;;;22.80;37.80;;;;;;5121572;28;19927;-61
2022/01/01 01:44:42;;;;;;;;;;;23.00;37.20;;;;;;5123106;28;20458;-61
2022/01/01 01:47:14;;;;;;;;;;;22.90;37.50;;;;;;5126617;28;19933;-51
2022/01/01 01:49:40;;;;;;;;;;;23.00;37.20;;;;;;5121033;28;19934;-61
2022/01/01 01:52:07;;;;;;;;;;;22.70;38.00;;;;;;5126235;28;19935;-62
2022/01/01 01:54:32;;;;;;;;;;;22.90;37.50;;;;;;5121137;28;19923;-58
2022/01/01 01:56:58;;;;;;;;;;;23.00;37.30;;;;;;5121176;28;20449;-60
2022/01/01 01:59:24;;;;;;;;;;;22.90;37.30;;;;;;5126654;28;19923;-60
2022/01/01 02:01:50;;;;;;;;;;;23.00;37.10;;;;;;5086063;28;19924;-62
2022/01/01 02:04:16;;;;;;;;;;;23.00;37.00;;;;;;5121295;28;19924;-61
2022/01/01 02:06:41;;;;;;;;;;;23.10;36.90;;;;;;5126326;28;20093;-61
2022/01/01 02:09:08;;;;;;;;;;;22.90;37.40;;;;;;5120877;28;20359;-54
2022/01/01 02:11:34;;;;;;;;;;;23.00;37.20;;;;;;5105703;28;19924;-60
2022/01/01 02:14:03;;;;;;;;;;;23.00;37.10;;;;;;5122471;28;19976;-64
2022/01/01 02:16:37;;;;;;;;;;;23.00;37.10;;;;;;5120876;28;20017;-61
2022/01/01 02:19:03;;;;;;;;;;;22.80;37.70;;;;;;5109022;28;19934;-60
2022/01/01 02:21:29;;;;;;;;;;;23.00;37.20;;;;;;5121041;28;19923;-61
2022/01/01 02:23:59;;;;;;;;;;;23.00;37.20;;;;;;5120791;28;20010;-51
2022/01/01 02:26:32;;;;;;;;;;;23.10;37.00;;;;;;5125862;28;19923;-55
2022/01/01 02:28:58;;;;;;;;;;;22.90;37.30;;;;;;5101598;28;19923;-61
2022/01/01 02:31:24;;;;;;;;;;;23.00;37.00;;;;;;5121218;28;20069;-60
2022/01/01 02:33:50;;;;;;;;;;;23.00;37.30;;;;;;5126282;28;19931;-61
2022/01/01 02:36:19;;;;;;;;;;;23.10;37.20;;;;;;5121012;28;19937;-62
2022/01/01 02:38:45;;;;;;;;;;;22.80;37.50;;;;;;5104778;28;20326;-61
2022/01/01 02:41:10;;;;;;;;;;;22.60;38.00;;;;;;5123098;28;19931;-62
2022/01/01 02:43:43;;;;;;;;;;;23.10;37.30;;;;;;5120331;28;19923;-59
2022/01/01 02:46:09;;;;;;;;;;;22.90;37.50;;;;;;5125220;28;20019;-59
2022/01/01 02:48:35;;;;;;;;;;;22.80;37.80;;;;;;5119901;28;19924;-60
2022/01/01 02:51:00;;;;;;;;;;;23.00;37.50;;;;;;5120542;28;20333;-58
2022/01/01 02:53:26;;;;;;;;;;;22.70;38.00;;;;;;5125870;28;19938;-56
2022/01/01 02:55:52;;;;;;;;;;;23.00;37.50;;;;;;5120488;28;19934;-61
2022/01/01 02:58:18;;;;;;;;;;;22.80;37.90;;;;;;5120414;28;19934;-61
2022/01/01 03:00:44;;;;;;;;;;;23.00;37.40;;;;;;5125669;28;19931;-61
2022/01/01 03:03:10;;;;;;;;;;;22.80;37.70;;;;;;5119782;28;19974;-61
2022/01/01 03:05:36;;;;;;;;;;;23.00;37.40;;;;;;5125284;28;19930;-61
2022/01/01 03:08:01;;;;;;;;;;;23.00;37.30;;;;;;5120408;28;20555;-58
2022/01/01 03:10:27;;;;;;;;;;;22.90;37.50;;;;;;5085277;28;19972;-60
2022/01/01 03:12:53;;;;;;;;;;;22.90;37.40;;;;;;5107515;28;19927;-59
2022/01/01 03:15:19;;;;;;;;;;;23.00;37.20;;;;;;5120217;28;19923;-51
2022/01/01 03:17:44;;;;;;;;;;;23.00;37.30;;;;;;5120240;28;19923;-60
2022/01/01 03:20:10;;;;;;;;;;;23.00;37.20;;;;;;5125206;28;19978;-61
2022/01/01 03:22:36;;;;;;;;;;;23.00;37.00;;;;;;5119818;28;20295;-60
2022/01/01 03:25:02;;;;;;;;;;;22.80;37.50;;;;;;5124915;28;20810;-60
2022/01/01 03:27:28;;;;;;;;;;;23.00;37.20;;;;;;5120511;28;20289;-61
2022/01/01 03:29:53;;;;;;;;;;;22.70;37.60;;;;;;5119953;28;19946;-59
2022/01/01 03:32:19;;;;;;;;;;;23.00;37.10;;;;;;5106978;28;19923;-63
2022/01/01 03:34:45;;;;;;;;;;;22.90;37.20;;;;;;5119853;28;19941;-60
2022/01/01 03:37:11;;;;;;;;;;;23.00;37.00;;;;;;5119834;28;20174;-60
2022/01/01 03:39:36;;;;;;;;;;;23.10;36.80;;;;;;5124723;28;19969;-60
2022/01/01 03:42:02;;;;;;;;;;;22.60;37.70;;;;;;5119229;28;20291;-61
2022/01/01 03:44:28;;;;;;;;;;;23.00;37.00;;;;;;5124087;28;19976;-61
2022/01/01 03:47:01;;;;;;;;;;;23.00;36.90;;;;;;5120945;28;19935;-62
2022/01/01 03:49:27;;;;;;;;;;;22.80;37.30;;;;;;5085426;28;19967;-59
2022/01/01 03:51:52;;;;;;;;;;;22.90;37.00;;;;;;5125189;28;19923;-63
2022/01/01 03:54:20;;;;;;;;;;;22.90;37.00;;;;;;5119210;28;19924;-59
2022/01/01 03:56:45;;;;;;;;;;;23.10;36.70;;;;;;5120823;27;20429;-60
2022/01/01 03:59:11;;;;;;;;;;;22.70;37.60;;;;;;5128227;28;19952;-60
2022/01/01 04:01:37;;;;;;;;;;;22.80;37.30;;;;;;5122524;28;19924;-59
2022/01/01 04:04:03;;;;;;;;;;;23.00;36.90;;;;;;5123147;28;20432;-61
2022/01/01 04:06:29;;;;;;;;;;;23.00;36.90;;;;;;5128358;28;20301;-56
2022/01/01 04:08:54;;;;;;;;;;;23.10;36.80;;;;;;5123249;28;19927;-61
2022/01/01 04:11:21;;;;;;;;;;;22.90;37.30;;;;;;5128290;28;20367;-60
2022/01/01 04:13:47;;;;;;;;;;;23.10;36.90;;;;;;5122992;28;19952;-59
2022/01/01 04:16:13;;;;;;;;;;;22.90;37.30;;;;;;5122695;28;19967;-62
2022/01/01 04:18:39;;;;;;;;;;;22.90;37.50;;;;;;5128075;28;20325;-58
2022/01/01 04:21:08;;;;;;;;;;;23.10;37.10;;;;;;5122347;28;20371;-64
2022/01/01 04:23:33;;;;;;;;;;;22.60;37.90;;;;;;5122977;28;20564;-60
2022/01/01 04:25:59;;;;;;;;;;;23.10;36.90;;;;;;5128157;28;19927;-59
2022/01/01 04:28:25;;;;;;;;;;;22.70;37.60;;;;;;5122656;28;19927;-61
2022/01/01 04:30:51;;;;;;;;;;;22.70;37.60;;;;;;5127899;28;19931;-58
2022/01/01 04:33:16;;;;;;;;;;;23.00;37.20;;;;;;5122617;28;19946;-59
2022/01/01 04:35:42;;;;;;;;;;;22.80;37.50;;;;;;5122451;28;19927;-60
2022/01/01 04:38:20;;;;;;;;;;;23.00;37.20;;;;;;5127260;28;19978;-61
2022/01/01 04:40:46;;;;;;;;;;;22.60;37.90;;;;;;5122266;28;19924;-61
2022/01/01 04:43:11;;;;;;;;;;;22.90;37.50;;;;;;5122365;28;20398;-59
2022/01/01 04:45:37;;;;;;;;;;;23.10;37.10;;;;;;5127973;28;19996;-58
2022/01/01 04:48:03;;;;;;;;;;;22.60;38.00;;;;;;5122238;28;19930;-60
2022/01/01 04:50:29;;;;;;;;;;;22.90;37.50;;;;;;5122530;28;19974;-55
2022/01/01 04:52:56;;;;;;;;;;;23.00;37.20;;;;;;5127396;28;19924;-61
2022/01/01 04:55:23;;;;;;;;;;;22.80;37.50;;;;;;5122079;28;19978;-54
2022/01/01 04:57:49;;;;;;;;;;;23.00;37.30;;;;;;5127301;28;20557;-58
2022/01/01 05:00:15;;;;;;;;;;;23.00;37.20;;;;;;5122605;28;20939;-59
2022/01/01 05:02:41;;;;;;;;;;;23.00;37.00;;;;;;5122409;28;19930;-61
2022/01/01 05:05:07;;;;;;;;;;;23.00;37.10;;;;;;5127712;28;20294;-58
2022/01/01 05:07:32;;;;;;;;;;;23.00;37.00;;;;;;5121800;27;19927;-59
2022/01/01 05:09:59;;;;;;;;;;;23.00;36.80;;;;;;5103469;28;20178;-60
2022/01/01 05:12:25;;;;;;;;;;;23.00;36.80;;;;;;5127185;28;19931;-61
2022/01/01 05:14:51;;;;;;;;;;;22.80;37.10;;;;;;5103077;28;20414;-62
2022/01/01 05:17:18;;;;;;;;;;;23.00;36.80;;;;;;5127068;28;19923;-56
2022/01/01 05:19:44;;;;;;;;;;;23.00;36.60;;;;;;5122098;28;19927;-61
2022/01/01 05:22:09;;;;;;;;;;;23.00;36.60;;;;;;5121639;28;19946;-61
2022/01/01 05:24:35;;;;;;;;;;;22.60;37.10;;;;;;5127172;28;19973;-61
2022/01/01 05:27:01;;;;;;;;;;;22.90;36.60;;;;;;5121401;28;19923;-60
2022/01/01 05:29:27;;;;;;;;;;;23.00;36.50;;;;;;5102794;28;19974;-62
2022/01/01 05:31:53;;;;;;;;;;;23.00;36.50;;;;;;5126976;28;20014;-58
2022/01/01 05:34:18;;;;;;;;;;;23.10;36.20;;;;;;5121367;28;19923;-62
2022/01/01 05:36:44;;;;;;;;;;;22.80;36.30;;;;;;5126195;28;19924;-62
2022/01/01 05:39:10;;;;;;;;;;;23.00;35.70;;;;;;5123598;28;19931;-56
2022/01/01 05:41:36;;;;;;;;;;;22.90;35.50;;;;;;5121617;28;19923;-61
2022/01/01 05:44:02;;;;;;;;;;;22.90;35.30;;;;;;5126925;28;20370;-60
2022/01/01 05:46:30;;;;;;;;;;;23.00;35.00;;;;;;5121581;28;19931;-60
2022/01/01 05:48:55;;;;;;;;;;;23.00;35.00;;;;;;5121292;28;19925;-59
2022/01/01 05:51:21;;;;;;;;;;;22.90;35.10;;;;;;5126821;28;19923;-60
2022/01/01 05:53:47;;;;;;;;;;;23.10;34.90;;;;;;5121281;28;20023;-60
2022/01/01 05:56:13;;;;;;;;;;;22.80;35.10;;;;;;5123123;28;19928;-61
2022/01/01 05:58:38;;;;;;;;;;;23.00;34.90;;;;;;5107270;28;19984;-60
2022/01/01 06:01:04;;;;;;;;;;;22.60;35.40;;;;;;5121168;28;19934;-61
2022/01/01 06:03:31;;;;;;;;;;;22.90;35.20;;;;;;5126461;28;19931;-56
2022/01/01 06:05:57;;;;;;;;;;;23.00;34.90;;;;;;5120938;28;20474;-60
2022/01/01 06:08:28;;;;;;;;;;;22.80;35.60;;;;;;5120897;28;19923;-61
2022/01/01 06:10:57;;;;;;;;;;;23.00;35.30;;;;;;5126327;28;19924;-60
2022/01/01 06:13:22;;;;;;;;;;;22.80;35.60;;;;;;5120912;28;20006;-60
2022/01/01 06:15:48;;;;;;;;;;;23.00;35.40;;;;;;5121300;28;20151;-54
2022/01/01 06:18:14;;;;;;;;;;;22.90;35.30;;;;;;5126355;28;19966;-61
2022/01/01 06:20:42;;;;;;;;;;;22.90;35.40;;;;;;5119967;27;19935;-54
2022/01/01 06:23:07;;;;;;;;;;;23.00;35.10;;;;;;5126454;28;19930;-62
2022/01/01 06:25:34;;;;;;;;;;;23.00;35.10;;;;;;5120719;28;20371;-60
2022/01/01 06:27:59;;;;;;;;;;;23.10;34.80;;;;;;5120594;28;20002;-59
2022/01/01 06:30:32;;;;;;;;;;;22.70;35.50;;;;;;5125802;28;19956;-58
2022/01/01 06:32:58;;;;;;;;;;;23.00;35.00;;;;;;5121224;28;19930;-59
2022/01/01 06:35:24;;;;;;;;;;;23.00;35.00;;;;;;5120811;28;19927;-59
2022/01/01 06:37:50;;;;;;;;;;;23.10;34.90;;;;;;5126028;28;20386;-62
2022/01/01 06:40:15;;;;;;;;;;;22.60;36.00;;;;;;5120248;28;19924;-60
2022/01/01 06:42:41;;;;;;;;;;;22.90;35.60;;;;;;5121623;28;19972;-61
2022/01/01 06:45:07;;;;;;;;;;;23.10;35.20;;;;;;5125188;28;19928;-60
2022/01/01 06:47:33;;;;;;;;;;;23.00;35.50;;;;;;5119967;28;20274;-56
2022/01/01 06:49:59;;;;;;;;;;;23.10;35.30;;;;;;5125683;28;20014;-60
2022/01/01 06:52:24;;;;;;;;;;;23.00;35.30;;;;;;5120820;28;19927;-51
2022/01/01 06:54:50;;;;;;;;;;;23.10;35.00;;;;;;5120514;28;20366;-58
2022/01/01 06:57:16;;;;;;;;;;;22.70;35.50;;;;;;5125639;28;20401;-57
2022/01/01 06:59:42;;;;;;;;;;;23.00;34.90;;;;;;5120229;28;19931;-61
2022/01/01 07:02:07;;;;;;;;;;;23.00;35.00;;;;;;5120205;28;19930;-62
2022/01/01 07:04:33;;;;;;;;;;;23.10;34.70;;;;;;5125383;28;19923;-61
2022/01/01 07:06:59;;;;;;;;;;;23.00;34.70;;;;;;5120182;28;19927;-59
2022/01/01 07:09:25;;;;;;;;;;;23.00;34.90;;;;;;5107264;28;19931;-59
2022/01/01 07:11:51;;;;;;;;;;;23.10;34.80;;;;;;5120459;28;19932;-61
2022/01/01 07:14:21;;;;;;;;;;;22.80;34.90;;;;;;5100341;28;20450;-61
2022/01/01 07:16:46;;;;;;;;;;;23.00;34.70;;;;;;5125427;28;19923;-62
2022/01/01 07:19:12;;;;;;;;;;;22.80;34.80;;;;;;5101855;28;19934;-62
2022/01/01 07:21:38;;;;;;;;;;;22.60;35.30;;;;;;5119426;28;19931;-62
2022/01/01 07:24:04;;;;;;;;;;;22.90;34.70;;;;;;5125057;28;20290;-62
2022/01/01 07:26:30;;;;;;;;;;;23.00;34.60;;;;;;5119687;28;19984;-58
2022/01/01 07:28:55;;;;;;;;;;;23.00;34.50;;;;;;5125737;28;20436;-58
2022/01/01 07:31:21;;;;;;;;;;;22.80;34.60;;;;;;5122051;27;20271;-58
2022/01/01 07:33:47;;;;;;;;;;;23.00;34.60;;;;;;5105194;28;19955;-61
2022/01/01 07:36:13;;;;;;;;;;;22.90;34.60;;;;;;5110093;28;19934;-57
2022/01/01 07:38:39;;;;;;;;;;;23.10;34.50;;;;;;5123626;28;19931;-60
2022/01/01 07:41:05;;;;;;;;;;;22.60;35.40;;;;;;5123072;28;20141;-61
2022/01/01 07:43:31;;;;;;;;;;;22.80;35.00;;;;;;5128493;28;19927;-58
2022/01/01 07:46:00;;;;;;;;;;;23.00;34.80;;;;;;5123366;28;19946;-62
2022/01/01 07:48:26;;;;;;;;;;;22.80;35.20;;;;;;5125839;28;19949;-59
2022/01/01 07:50:52;;;;;;;;;;;23.00;34.90;;;;;;5126900;28;19924;-55
2022/01/01 07:53:18;;;;;;;;;;;22.90;34.80;;;;;;5123131;28;19927;-63
2022/01/01 07:55:43;;;;;;;;;;;22.90;34.90;;;;;;5128534;28;19928;-56
2022/01/01 07:58:09;;;;;;;;;;;22.90;34.90;;;;;;5123014;28;19923;-60
2022/01/01 08:00:35;;;;;;;;;;;23.00;34.80;;;;;;5123145;28;20062;-58
2022/01/01 08:03:01;;;;;;;;;;;23.10;34.70;;;;;;5128028;28;20291;-61
2022/01/01 08:05:26;;;;;;;;;;;23.10;34.60;;;;;;5123751;28;19950;-59
2022/01/01 08:07:52;;;;;;;;;;;23.00;34.80;;;;;;5123653;28;19927;-60
2022/01/01 08:10:20;;;;;;;;;;;23.10;34.80;;;;;;5128449;28;19963;-60
2022/01/01 08:12:46;;;;;;;;;;;22.60;35.50;;;;;;5122781;28;20359;-60
2022/01/01 08:15:11;;;;;;;;;;;22.80;35.00;;;;;;5128247;28;19930;-57
2022/01/01 08:17:37;;;;;;;;;;;22.90;34.80;;;;;;5122513;28;19942;-61
2022/01/01 08:20:06;;;;;;;;;;;23.00;34.60;;;;;;5122594;28;19927;-58
2022/01/01 08:22:32;;;;;;;;;;;22.90;34.70;;;;;;5127996;28;20327;-61
2022/01/01 08:24:58;;;;;;;;;;;22.80;34.80;;;;;;5123037;28;19931;-60
2022/01/01 08:27:23;;;;;;;;;;;23.00;34.30;;;;;;5122926;28;20228;-60
2022/01/01 08:29:49;;;;;;;;;;;22.90;34.10;;;;;;5093121;28;19923;-59
2022/01/01 08:32:15;;;;;;;;;;;23.00;34.10;;;;;;5122543;28;20051;-61
2022/01/01 08:34:41;;;;;;;;;;;22.80;34.20;;;;;;5108612;28;19931;-60
2022/01/01 08:37:07;;;;;;;;;;;22.80;34.60;;;;;;5122270;28;19946;-61
2022/01/01 08:39:33;;;;;;;;;;;23.00;34.10;;;;;;5122575;28;19924;-61
2022/01/01 08:41:59;;;;;;;;;;;23.00;33.90;;;;;;5127253;27;19927;-61
2022/01/01 08:44:26;;;;;;;;;;;23.10;33.80;;;;;;5104589;28;20272;-58
2022/01/01 08:46:51;;;;;;;;;;;22.90;33.90;;;;;;5122231;28;19992;-57
2022/01/01 08:49:17;;;;;;;;;;;22.90;33.70;;;;;;5109523;28;20022;-58
2022/01/01 08:51:43;;;;;;;;;;;23.00;33.70;;;;;;5122046;28;20339;-54
2022/01/01 08:54:09;;;;;;;;;;;23.00;33.50;;;;;;5126681;28;19941;-61
2022/01/01 08:56:35;;;;;;;;;;;23.00;33.50;;;;;;5123040;28;19927;-60
2022/01/01 08:59:01;;;;;;;;;;;23.00;33.40;;;;;;5121684;28;19923;-59
2022/01/01 09:01:26;;;;;;;;;;;23.10;33.30;;;;;;5127616;28;19961;-62
2022/01/01 09:03:52;;;;;;;;;;;22.80;33.50;;;;;;5101481;28;19984;-60
2022/01/01 09:06:18;;;;;;;;;;;23.00;33.20;;;;;;5122182;28;19970;-58
2022/01/01 09:08:44;;;;;;;;;;;23.00;33.20;;;;;;5127322;28;19923;-61
2022/01/01 09:11:10;;;;;;;;;;;23.00;33.30;;;;;;5121858;28;19928;-49
2022/01/01 09:13:41;;;;;;;;;;;23.00;33.20;;;;;;5123966;28;20315;-61
2022/01/01 09:16:08;;;;;;;;;;;22.90;33.40;;;;;;5126972;28;19923;-55
2022/01/01 09:18:33;;;;;;;;;;;23.00;33.20;;;;;;5121797;28;19932;-60
2022/01/01 09:20:59;;;;;;;;;;;23.00;33.30;;;;;;5127444;28;19945;-62
2022/01/01 09:23:25;;;;;;;;;;;23.10;33.40;;;;;;5121896;28;19965;-60
2022/01/01 09:25:51;;;;;;;;;;;22.70;34.20;;;;;;5121792;28;19942;-59
2022/01/01 09:28:16;;;;;;;;;;;23.00;33.80;;;;;;5127207;28;20017;-61
2022/01/01 09:30:42;;;;;;;;;;;22.80;34.20;;;;;;5121544;28;19935;-60
2022/01/01 09:33:09;;;;;;;;;;;22.70;34.40;;;;;;5121254;28;19924;-60
2022/01/01 09:35:35;;;;;;;;;;;23.00;34.10;;;;;;5126539;28;19964;-62
2022/01/01 09:38:01;;;;;;;;;;;23.10;34.00;;;;;;5121758;28;20371;-61
2022/01/01 09:40:28;;;;;;;;;;;23.10;33.90;;;;;;5127140;28;19927;-59
2022/01/01 09:42:54;;;;;;;;;;;22.90;34.10;;;;;;5121337;28;19923;-61
2022/01/01 09:45:19;;;;;;;;;;;23.00;34.10;;;;;;5102763;28;20353;-63
2022/01/01 09:47:45;;;;;;;;;;;22.80;34.50;;;;;;5108487;28;19931;-60
2022/01/01 09:50:11;;;;;;;;;;;23.00;34.20;;;;;;5121258;28;19924;-61
2022/01/01 09:52:37;;;;;;;;;;;22.90;34.60;;;;;;5121064;28;19933;-62
2022/01/01 09:55:03;;;;;;;;;;;22.80;34.70;;;;;;5106948;28;20378;-61
2022/01/01 09:57:29;;;;;;;;;;;23.00;34.50;;;;;;5121614;28;19927;-59
2022/01/01 09:59:54;;;;;;;;;;;22.90;34.80;;;;;;5126339;28;20331;-60
2022/01/01 10:02:20;;;;;;;;;;;23.00;34.80;;;;;;5121109;28;20427;-57
2022/01/01 10:04:48;;;;;;;;;;;23.10;34.80;;;;;;5121108;28;19923;-61
2022/01/01 10:07:14;;;;;;;;;;;23.10;34.80;;;;;;5126594;28;19937;-61
2022/01/01 10:09:40;;;;;;;;;;;22.80;35.30;;;;;;5120626;28;19941;-55
2022/01/01 10:12:07;;;;;;;;;;;23.00;35.10;;;;;;5120765;28;19970;-60
2022/01/01 10:14:36;;;;;;;;;;;22.80;35.70;;;;;;5126502;28;19924;-54
2022/01/01 10:17:15;;;;;;;;;;;23.00;35.40;;;;;;5121200;28;19923;-61
2022/01/01 10:19:41;;;;;;;;;;;22.90;35.50;;;;;;5120712;28;19923;-52
2022/01/01 10:22:11;;;;;;;;;;;23.00;35.40;;;;;;5126311;28;19930;-60
2022/01/01 10:30:07;;;;;;;;;;;22.70;35.80;;;;;;5125848;28;19952;-60
2022/01/01 10:32:32;;;;;;;;;;;23.00;35.20;;;;;;5120768;28;19975;-61
2022/01/01 10:35:00;;;;;;;;;;;22.90;34.90;;;;;;5121459;28;20361;-59
2022/01/01 10:37:27;;;;;;;;;;;22.90;34.90;;;;;;5126093;28;19932;-60
2022/01/01 10:39:57;;;;;;;;;;;22.80;35.10;;;;;;5120561;28;19927;-59
2022/01/01 10:42:23;;;;;;;;;;;23.00;34.90;;;;;;5126027;28;20412;-61
2022/01/01 10:44:50;;;;;;;;;;;22.90;35.10;;;;;;5120221;28;19934;-56
2022/01/01 10:47:18;;;;;;;;;;;23.00;35.10;;;;;;5120582;28;19923;-60
2022/01/01 10:52:33;;;;;;;;;;;23.20;34.70;;;;;;5120348;28;19928;-62
2022/01/01 10:55:03;;;;;;;;;;;22.70;35.00;;;;;;5120339;28;19923;-59
2022/01/01 10:57:28;;;;;;;;;;;22.90;34.60;;;;;;5125772;28;19972;-63
2022/01/01 11:00:05;;;;;;;;;;;22.70;34.80;;;;;;5119713;28;19923;-62
2022/01/01 11:02:34;;;;;;;;;;;23.00;34.40;;;;;;5120101;28;20363;-61
2022/01/01 11:05:00;;;;;;;;;;;22.90;34.50;;;;;;5106248;27;20014;-62
2022/01/01 11:07:26;;;;;;;;;;;23.00;34.20;;;;;;5100430;28;20087;-62
2022/01/01 11:09:52;;;;;;;;;;;22.50;35.00;;;;;;5120055;28;19946;-61
2022/01/01 11:12:21;;;;;;;;;;;22.80;34.60;;;;;;5125689;28;19923;-60
2022/01/01 11:14:47;;;;;;;;;;;23.00;34.20;;;;;;5085089;28;20034;-63
2022/01/01 11:17:13;;;;;;;;;;;22.80;34.70;;;;;;5125479;28;19928;-54
2022/01/01 11:19:38;;;;;;;;;;;23.00;34.40;;;;;;5100195;28;19969;-62
2022/01/01 11:22:04;;;;;;;;;;;22.80;34.90;;;;;;5119454;28;19923;-61
2022/01/01 11:24:31;;;;;;;;;;;23.00;34.60;;;;;;5125004;28;19931;-56
2022/01/01 11:26:57;;;;;;;;;;;22.80;34.80;;;;;;5119120;28;19979;-60
2022/01/01 11:29:23;;;;;;;;;;;22.80;34.90;;;;;;5101461;28;20596;-62
2022/01/01 11:31:49;;;;;;;;;;;23.10;34.50;;;;;;5106816;28;19946;-63
2022/01/01 11:34:14;;;;;;;;;;;22.80;35.00;;;;;;5101014;28;20428;-64
2022/01/01 11:36:40;;;;;;;;;;;23.00;34.60;;;;;;5125267;28;19997;-61
2022/01/01 11:39:07;;;;;;;;;;;22.80;35.10;;;;;;5098960;28;19923;-55
2022/01/01 11:41:40;;;;;;;;;;;23.00;34.90;;;;;;5119220;28;20014;-63
2022/01/01 11:44:24;;;;;;;;;;;22.80;35.30;;;;;;5124766;28;19927;-59
2022/01/01 11:47:01;;;;;;;;;;;23.00;35.10;;;;;;5119450;28;20280;-61
2022/01/01 11:49:27;;;;;;;;;;;22.80;35.50;;;;;;5119817;28;19924;-59
2022/01/01 11:51:56;;;;;;;;;;;23.00;35.20;;;;;;5125053;28;20312;-60
2022/01/01 11:54:25;;;;;;;;;;;22.80;35.50;;;;;;5119298;28;20352;-53
2022/01/01 11:56:50;;;;;;;;;;;23.00;35.30;;;;;;5119269;28;19923;-62
2022/01/01 11:59:17;;;;;;;;;;;22.80;35.40;;;;;;5124769;28;19995;-62
2022/01/01 12:01:43;;;;;;;;;;;23.00;35.40;;;;;;5119132;28;20001;-61
2022/01/01 12:04:19;;;;;;;;;;;22.90;35.50;;;;;;5119027;28;20276;-61
2022/01/01 12:06:45;;;;;;;;;;;22.90;35.60;;;;;;5087510;28;20272;-57
2022/01/01 12:09:10;;;;;;;;;;;23.10;35.20;;;;;;5119607;28;19924;-58
2022/01/01 12:11:36;;;;;;;;;;;23.00;35.40;;;;;;5123257;28;19934;-60
2022/01/01 12:14:02;;;;;;;;;;;23.00;35.30;;;;;;5121618;28;19942;-61
2022/01/01 12:16:29;;;;;;;;;;;22.80;35.70;;;;;;5118996;27;20313;-61
2022/01/01 12:19:04;;;;;;;;;;;23.10;35.30;;;;;;5127450;28;19934;-60
2022/01/01 12:21:39;;;;;;;;;;;22.80;35.80;;;;;;5104015;28;19941;-60
2022/01/01 12:24:08;;;;;;;;;;;23.10;35.30;;;;;;5122313;28;19940;-59
2022/01/01 12:26:34;;;;;;;;;;;22.90;35.60;;;;;;5128353;28;20010;-60
2022/01/01 12:29:06;;;;;;;;;;;23.10;35.30;;;;;;5122638;28;19937;-60
2022/01/01 12:31:32;;;;;;;;;;;22.80;35.90;;;;;;5122549;28;19928;-63
2022/01/01 12:34:00;;;;;;;;;;;23.10;35.40;;;;;;5128005;28;19933;-61
2022/01/01 12:36:31;;;;;;;;;;;22.90;35.70;;;;;;5104092;28;19923;-61
2022/01/01 12:38:58;;;;;;;;;;;23.20;35.40;;;;;;5122303;28;19976;-63
2022/01/01 12:41:38;;;;;;;;;;;22.80;36.10;;;;;;5126651;28;21296;-60
2022/01/01 12:44:05;;;;;;;;;;;23.00;35.60;;;;;;5122818;28;19923;-61
2022/01/01 12:46:35;;;;;;;;;;;22.80;36.00;;;;;;5105900;28;19987;-59
2022/01/01 12:49:02;;;;;;;;;;;23.00;35.50;;;;;;5109464;28;20325;-61
2022/01/01 12:51:28;;;;;;;;;;;22.90;35.70;;;;;;5122161;28;20501;-60
2022/01/01 12:53:55;;;;;;;;;;;23.10;35.40;;;;;;5127852;28;20401;-60
2022/01/01 12:56:20;;;;;;;;;;;22.70;36.00;;;;;;5121909;28;19967;-59
2022/01/01 12:58:46;;;;;;;;;;;23.00;35.50;;;;;;5121826;28;19923;-60
2022/01/01 13:01:18;;;;;;;;;;;22.90;35.70;;;;;;5127314;28;19924;-59
2022/01/01 13:03:45;;;;;;;;;;;22.80;35.90;;;;;;5122282;28;20364;-65
2022/01/01 13:06:18;;;;;;;;;;;23.10;35.50;;;;;;5122059;28;20282;-60
2022/01/01 13:08:44;;;;;;;;;;;22.80;36.10;;;;;;5127454;28;20428;-64
2022/01/01 13:11:10;;;;;;;;;;;23.20;35.40;;;;;;5121971;28;19938;-63
2022/01/01 13:13:36;;;;;;;;;;;22.80;36.10;;;;;;5104566;28;20349;-58
2022/01/01 13:16:01;;;;;;;;;;;23.00;35.80;;;;;;5125253;28;19927;-58
2022/01/01 13:18:28;;;;;;;;;;;22.80;36.10;;;;;;5121060;28;20298;-59
2022/01/01 13:20:54;;;;;;;;;;;23.10;35.70;;;;;;5127336;28;20378;-62
2022/01/01 13:23:22;;;;;;;;;;;22.80;36.10;;;;;;5121712;28;19923;-55
2022/01/01 13:25:49;;;;;;;;;;;23.00;35.80;;;;;;5121765;28;19927;-63
2022/01/01 13:28:15;;;;;;;;;;;22.80;36.10;;;;;;5126850;27;20271;-55
2022/01/01 13:30:41;;;;;;;;;;;23.00;35.90;;;;;;5121614;28;19930;-61
2022/01/01 13:33:07;;;;;;;;;;;22.70;36.30;;;;;;5121539;28;20302;-60
2022/01/01 13:35:32;;;;;;;;;;;23.00;35.80;;;;;;5126960;28;19924;-62
2022/01/01 13:37:58;;;;;;;;;;;22.80;36.20;;;;;;5121200;28;20386;-56
2022/01/01 13:40:24;;;;;;;;;;;23.00;36.10;;;;;;5127182;28;19937;-61
2022/01/01 13:42:50;;;;;;;;;;;22.80;36.30;;;;;;5121231;28;19935;-60
2022/01/01 13:45:16;;;;;;;;;;;23.00;36.10;;;;;;5102692;28;19949;-60
2022/01/01 13:47:41;;;;;;;;;;;23.10;35.80;;;;;;5126541;28;19930;-62
2022/01/01 13:50:11;;;;;;;;;;;22.80;36.40;;;;;;5121173;28;20309;-60
2022/01/01 13:52:38;;;;;;;;;;;23.00;36.00;;;;;;5121159;28;19941;-61
2022/01/01 13:55:04;;;;;;;;;;;22.80;36.30;;;;;;5126335;28;19928;-62
2022/01/01 13:57:31;;;;;;;;;;;23.00;36.00;;;;;;5103449;28;19931;-60
2022/01/01 13:59:57;;;;;;;;;;;22.80;36.60;;;;;;5126052;28;19928;-59
2022/01/01 14:02:23;;;;;;;;;;;23.00;36.20;;;;;;5122454;28;19988;-56
2022/01/01 14:04:49;;;;;;;;;;;22.80;36.40;;;;;;5120970;28;20018;-61
2022/01/01 14:07:16;;;;;;;;;;;22.90;36.40;;;;;;5126453;28;19931;-60
2022/01/01 14:09:57;;;;;;;;;;;23.00;36.20;;;;;;5102362;28;19928;-59
2022/01/01 14:12:34;;;;;;;;;;;22.90;36.50;;;;;;5120436;28;20022;-61
2022/01/01 14:15:23;;;;;;;;;;;23.10;36.10;;;;;;5126143;28;20374;-62
2022/01/01 14:17:50;;;;;;;;;;;23.00;36.30;;;;;;5104064;28;19988;-63
2022/01/01 14:20:20;;;;;;;;;;;22.90;36.30;;;;;;5102247;28;19923;-60
2022/01/01 14:22:46;;;;;;;;;;;22.90;36.20;;;;;;5126221;28;19927;-61